Time;durP1;ratioP1;P1;durP2;ratioP2;P2;SDS_P1;SDS_P2;PMS_P1;PMS_P2;Temp;Humidity;BMP_temperature;BMP_pressure;BME280_temperature;BME280_humidity;BME280_pressure;Samples;Min_cycle;Max_cycle;Signal;HPM_P1;HPM_P2
2021/03/17 00:00:14;;;;;;;4.07;3.92;;;;;;;2.74;37.99;101614.19;4978261;28;97036;-73
2021/03/17 00:03:02;;;;;;;4.35;4.05;;;;;;;2.76;38.30;101615.19;5010934;28;99721;-72
2021/03/17 00:05:48;;;;;;;4.00;3.80;;;;;;;2.80;38.48;101614.59;4975174;28;98381;-73
2021/03/17 00:08:34;;;;;;;4.00;3.83;;;;;;;2.88;37.59;101614.28;4977321;28;96882;-73
2021/03/17 00:11:20;;;;;;;4.78;3.90;;;;;;;2.90;37.65;101619.63;4975632;28;96858;-71
2021/03/17 00:14:17;;;;;;;4.28;3.58;;;;;;;2.91;38.09;101608.31;4974537;28;98667;-72
2021/03/17 00:17:04;;;;;;;5.13;3.70;;;;;;;2.86;38.08;101621.16;4974928;28;98522;-74
2021/03/17 00:19:50;;;;;;;3.95;3.70;;;;;;;2.81;37.67;101617.31;4977872;28;96715;-73
2021/03/17 00:22:36;;;;;;;3.63;3.53;;;;;;;2.77;38.08;101615.28;4975797;28;97358;-72
2021/03/17 00:25:23;;;;;;;6.43;3.45;;;;;;;2.71;37.91;101617.50;4973832;28;99322;-73
2021/03/17 00:28:10;;;;;;;3.83;3.63;;;;;;;2.69;38.27;101610.34;4977105;28;99919;-73
2021/03/17 00:30:55;;;;;;;5.38;3.75;;;;;;;2.63;38.28;101615.19;4975852;28;96870;-72
2021/03/17 00:33:41;;;;;;;4.03;3.80;;;;;;;2.58;38.73;101617.53;4975323;28;97273;-72
2021/03/17 00:36:28;;;;;;;4.03;3.70;;;;;;;2.58;38.29;101619.25;4976484;28;97841;-72
2021/03/17 00:39:13;;;;;;;4.25;3.95;;;;;;;2.64;38.36;101619.63;4976205;28;99194;-72
2021/03/17 00:42:00;;;;;;;4.72;4.05;;;;;;;2.71;38.68;101619.25;4976622;28;97487;-72
2021/03/17 00:44:46;;;;;;;5.40;3.80;;;;;;;2.70;38.21;101625.28;4973826;28;96903;-72
2021/03/17 00:47:32;;;;;;;4.65;4.00;;;;;;;2.71;38.42;101619.25;5009867;28;99659;-72
2021/03/17 00:50:00;;;;;;;4.80;4.47;;;;;;;2.70;37.95;101618.34;4960714;28;99249;-72
2021/03/17 00:52:27;;;;;;;4.13;3.88;;;;;;;2.68;38.38;101613.78;4973253;28;98862;-73
2021/03/17 00:55:07;;;;;;;4.20;3.78;;;;;;;2.68;37.95;101612.06;4976856;28;96848;-72
2021/03/17 00:57:58;;;;;;;3.60;3.40;;;;;;;2.61;38.51;101612.47;4993979;28;99647;-72
2021/03/17 01:00:26;;;;;;;3.90;3.70;;;;;;;2.56;38.65;101612.97;4958413;28;98940;-72
2021/03/17 01:02:53;;;;;;;5.45;3.42;;;;;;;2.62;38.37;101619.53;4973599;28;97124;-71
2021/03/17 01:05:20;;;;;;;5.43;4.07;;;;;;;2.58;38.55;101614.00;4979257;28;96887;-72
2021/03/17 01:07:47;;;;;;;3.92;3.50;;;;;;;2.66;38.78;101620.63;4974164;28;98088;-73
2021/03/17 01:10:17;;;;;;;5.28;3.90;;;;;;;2.65;38.84;101619.75;5006085;27;99683;-73
2021/03/17 01:12:44;;;;;;;3.80;3.60;;;;;;;2.66;38.63;101613.69;4992492;28;96917;-71
2021/03/17 01:15:15;;;;;;;3.90;3.70;;;;;;;2.60;38.07;101615.00;5007767;28;97369;-71
2021/03/17 01:17:42;;;;;;;4.88;3.53;;;;;;;2.60;39.02;101612.38;5007347;27;99799;-74
2021/03/17 01:20:11;;;;;;;4.97;3.67;;;;;;;2.62;38.19;101616.03;4975394;28;97641;-72
2021/03/17 01:22:39;;;;;;;3.90;3.70;;;;;;;2.58;38.65;101611.38;4974871;28;97000;-72
2021/03/17 01:25:09;;;;;;;5.57;3.65;;;;;;;2.53;38.44;101610.16;4976036;28;96794;-72
2021/03/17 01:27:37;;;;;;;3.92;3.45;;;;;;;2.60;38.40;101617.63;4974524;28;97883;-72
2021/03/17 01:30:05;;;;;;;3.70;3.50;;;;;;;2.65;38.35;101613.59;4975456;28;101115;-72
2021/03/17 01:32:34;;;;;;;4.20;4.00;;;;;;;2.61;38.53;101598.41;4974004;28;96709;-72
2021/03/17 01:35:02;;;;;;;5.43;3.95;;;;;;;2.63;38.36;101605.59;4977311;28;96875;-73
2021/03/17 01:37:28;;;;;;;5.18;4.32;;;;;;;2.58;38.70;101606.13;4989332;28;100548;-72
2021/03/17 01:39:55;;;;;;;4.35;3.88;;;;;;;2.56;38.62;101598.13;4974555;28;99583;-74
2021/03/17 01:42:22;;;;;;;5.00;3.63;;;;;;;2.54;38.54;101604.09;5011120;28;96840;-73
2021/03/17 01:45:05;;;;;;;4.32;4.03;;;;;;;2.58;38.14;101601.78;5007811;28;97275;-72
2021/03/17 01:47:33;;;;;;;6.82;3.42;;;;;;;2.63;38.26;101604.69;4991897;28;98991;-72
2021/03/17 01:50:00;;;;;;;6.22;4.10;;;;;;;2.64;38.50;101604.78;5007388;28;99094;-73
2021/03/17 01:52:28;;;;;;;4.70;3.90;;;;;;;2.65;37.88;101604.00;4989757;28;96898;-72
2021/03/17 01:54:55;;;;;;;4.53;3.45;;;;;;;2.65;38.39;101604.00;4974301;28;97028;-72
2021/03/17 01:57:22;;;;;;;3.83;3.63;;;;;;;2.72;37.79;101602.66;5008172;28;99983;-73
2021/03/17 01:59:49;;;;;;;6.78;3.67;;;;;;;2.76;38.39;101607.31;4970713;28;99006;-74
2021/03/17 02:02:17;;;;;;;5.85;3.58;;;;;;;2.78;37.95;101603.06;4971578;28;97148;-74
2021/03/17 02:04:46;;;;;;;5.45;3.58;;;;;;;2.74;38.27;101599.34;4972075;28;97032;-72
2021/03/17 02:07:13;;;;;;;4.10;3.30;;;;;;;2.74;38.70;101603.69;4971762;28;96775;-72
2021/03/17 02:09:41;;;;;;;6.07;3.67;;;;;;;2.74;37.73;101606.31;4972887;28;99690;-72
2021/03/17 02:12:36;;;;;;;3.90;3.65;;;;;;;2.76;38.26;101604.69;5008368;28;96934;-72
2021/03/17 02:15:15;;;;;;;4.05;3.30;;;;;;;2.83;38.14;101612.16;4991699;28;97286;-72
2021/03/17 02:17:43;;;;;;;3.90;3.78;;;;;;;2.81;38.50;101604.19;4975460;28;98697;-74
2021/03/17 02:20:46;;;;;;;4.15;3.90;;;;;;;2.88;37.92;101602.84;4972178;28;98664;-72
2021/03/17 02:23:18;;;;;;;3.83;3.53;;;;;;;2.85;37.76;101603.56;4971906;28;96971;-73
2021/03/17 02:26:08;;;;;;;3.53;3.22;;;;;;;2.86;37.87;101600.13;4989097;28;96966;-72
2021/03/17 02:28:50;;;;;;;4.32;3.95;;;;;;;2.84;37.60;101595.56;4973333;28;96932;-72
2021/03/17 02:31:35;;;;;;;4.88;3.50;;;;;;;2.90;37.57;101596.88;4975498;28;97824;-72
2021/03/17 02:34:07;;;;;;;4.25;3.95;;;;;;;2.94;37.51;101593.66;4975293;28;96854;-72
2021/03/17 02:36:38;;;;;;;3.63;3.35;;;;;;;2.98;37.37;101600.00;4973643;28;96979;-73
2021/03/17 02:39:07;;;;;;;4.20;3.83;;;;;;;3.01;37.78;101598.50;4972922;28;96831;-73
2021/03/17 02:41:40;;;;;;;3.78;3.47;;;;;;;3.02;38.04;101596.78;5003417;28;98419;-72
2021/03/17 02:44:13;;;;;;;5.70;3.70;;;;;;;3.01;37.38;101597.56;4973455;28;97319;-74
2021/03/17 02:46:40;;;;;;;3.33;3.10;;;;;;;3.03;37.37;101598.59;4975220;28;96868;-72
2021/03/17 02:49:10;;;;;;;4.35;3.70;;;;;;;3.05;37.96;101603.16;4973038;28;96703;-73
2021/03/17 02:51:41;;;;;;;4.10;3.40;;;;;;;3.03;37.67;101598.59;4973499;28;97865;-73
2021/03/17 02:54:11;;;;;;;7.15;3.70;;;;;;;3.08;37.78;101599.78;5001777;27;96907;-72
2021/03/17 02:56:42;;;;;;;4.10;3.22;;;;;;;3.09;37.64;101605.13;4972695;28;96797;-72
2021/03/17 02:59:09;;;;;;;4.88;3.63;;;;;;;2.99;37.99;101607.06;4974987;28;96858;-73
2021/03/17 03:01:38;;;;;;;4.30;3.33;;;;;;;3.02;37.47;101609.94;4971418;28;97899;-72
2021/03/17 03:04:08;;;;;;;4.28;3.92;;;;;;;3.08;37.79;101603.31;5002914;28;97740;-74
2021/03/17 03:06:36;;;;;;;4.15;3.65;;;;;;;3.09;38.00;101594.59;4968106;28;97238;-72
2021/03/17 03:09:04;;;;;;;8.25;3.63;;;;;;;3.14;37.94;101601.09;5009223;28;97585;-72
2021/03/17 03:11:32;;;;;;;3.65;3.47;;;;;;;3.09;37.85;101594.59;4989153;28;98818;-72
2021/03/17 03:13:59;;;;;;;4.28;3.80;;;;;;;3.10;37.54;101595.53;4955125;28;97043;-72
2021/03/17 03:16:27;;;;;;;4.07;3.75;;;;;;;3.13;37.77;101595.75;4972570;28;97751;-74
2021/03/17 03:18:54;;;;;;;3.83;3.63;;;;;;;3.10;37.45;101598.16;4972469;28;96800;-72
2021/03/17 03:21:24;;;;;;;3.80;3.42;;;;;;;3.12;38.17;101599.16;4957959;28;97141;-72
2021/03/17 03:23:53;;;;;;;4.07;3.83;;;;;;;3.13;37.59;101594.00;4957112;28;96664;-73
2021/03/17 03:26:20;;;;;;;4.68;4.38;;;;;;;3.12;37.44;101600.09;4971739;28;96753;-74
2021/03/17 03:28:48;;;;;;;4.25;3.40;;;;;;;3.12;37.36;101600.09;4988830;28;98286;-72
2021/03/17 03:31:17;;;;;;;4.60;3.58;;;;;;;3.18;37.85;101599.56;4974285;28;97158;-73
2021/03/17 03:33:45;;;;;;;5.38;4.13;;;;;;;3.21;37.89;101616.44;4972181;28;96831;-72
2021/03/17 03:36:12;;;;;;;5.82;3.80;;;;;;;3.16;37.56;101602.09;4972366;28;96968;-73
2021/03/17 03:38:41;;;;;;;3.25;3.25;;;;;;;3.17;37.20;101613.50;5005615;27;100033;-74
2021/03/17 03:41:09;;;;;;;7.88;3.70;;;;;;;3.17;37.60;101609.16;4956728;28;98253;-74
2021/03/17 03:43:35;;;;;;;4.18;3.30;;;;;;;3.21;37.61;101612.91;4973629;28;96804;-74
2021/03/17 03:46:03;;;;;;;4.18;3.78;;;;;;;3.27;37.62;101613.31;4972535;28;97090;-76
2021/03/17 03:48:31;;;;;;;3.60;3.40;;;;;;;3.29;37.58;101606.41;4972604;28;97340;-73
2021/03/17 03:50:58;;;;;;;3.42;3.25;;;;;;;3.28;37.34;101601.97;4957723;28;99676;-73
2021/03/17 03:53:42;;;;;;;4.82;3.80;;;;;;;3.33;37.36;101608.41;4970660;28;96849;-72
2021/03/17 03:56:13;;;;;;;6.25;3.75;;;;;;;3.33;37.12;101615.41;4974586;28;96801;-74
2021/03/17 03:58:44;;;;;;;6.32;3.58;;;;;;;3.28;37.58;101611.59;4986667;28;98936;-72
2021/03/17 04:01:13;;;;;;;3.80;3.40;;;;;;;3.31;37.27;101612.69;4973907;28;97774;-72
2021/03/17 04:03:42;;;;;;;6.57;4.65;;;;;;;3.28;37.60;101608.97;4974097;28;96882;-72
2021/03/17 04:06:10;;;;;;;5.95;3.88;;;;;;;3.31;37.43;101609.16;4977910;28;96989;-72
2021/03/17 04:08:40;;;;;;;4.30;3.88;;;;;;;3.32;37.90;101609.25;4976350;28;98476;-72
2021/03/17 04:11:08;;;;;;;3.97;3.28;;;;;;;3.36;37.75;101611.25;4993270;28;98367;-74
2021/03/17 04:13:35;;;;;;;3.90;3.67;;;;;;;3.35;37.56;101613.78;4978021;28;96997;-74
2021/03/17 04:16:03;;;;;;;5.25;3.90;;;;;;;3.29;37.34;101616.94;4961008;28;96916;-74
2021/03/17 04:18:33;;;;;;;4.50;4.00;;;;;;;3.29;37.60;101619.56;5010689;28;97091;-72
2021/03/17 04:21:03;;;;;;;8.80;3.92;;;;;;;3.24;37.81;101618.34;5008034;28;99276;-73
2021/03/17 04:23:31;;;;;;;5.00;3.85;;;;;;;3.21;37.41;101620.78;4988811;28;96674;-72
2021/03/17 04:26:00;;;;;;;6.85;3.78;;;;;;;3.12;37.47;101625.47;5008546;28;97437;-72
2021/03/17 04:28:28;;;;;;;4.40;3.95;;;;;;;3.15;38.00;101630.91;4974043;28;99083;-72
2021/03/17 04:30:58;;;;;;;3.70;3.42;;;;;;;3.10;37.65;101624.47;4975256;28;98012;-71
2021/03/17 04:33:25;;;;;;;4.65;3.83;;;;;;;3.05;37.89;101628.53;5007826;28;96746;-72
2021/03/17 04:35:54;;;;;;;4.25;4.03;;;;;;;3.02;38.21;101633.59;4961342;28;97437;-72
2021/03/17 04:38:23;;;;;;;4.03;3.70;;;;;;;3.04;37.90;101634.56;5005376;28;98133;-72
2021/03/17 04:40:50;;;;;;;4.03;3.80;;;;;;;3.07;37.62;101634.78;4991450;28;99739;-72
2021/03/17 04:43:19;;;;;;;5.50;3.80;;;;;;;3.01;38.13;101631.75;4974201;28;97402;-73
2021/03/17 04:45:46;;;;;;;4.95;3.90;;;;;;;2.96;38.12;101638.44;4971634;28;96902;-72
2021/03/17 04:48:13;;;;;;;4.18;3.72;;;;;;;2.94;38.35;101645.31;4976004;28;98791;-73
2021/03/17 04:50:41;;;;;;;3.80;3.63;;;;;;;2.85;38.74;101647.34;4958532;28;97188;-73
2021/03/17 04:53:09;;;;;;;4.95;4.45;;;;;;;2.84;38.36;101649.06;5008210;28;96771;-73
2021/03/17 04:55:36;;;;;;;4.10;3.78;;;;;;;2.88;38.04;101660.66;4989275;28;97045;-72
2021/03/17 04:58:04;;;;;;;4.47;4.15;;;;;;;2.86;38.01;101657.94;4972238;28;99404;-72
2021/03/17 05:00:33;;;;;;;3.90;3.60;;;;;;;2.84;38.72;101661.28;4942341;28;96988;-73
2021/03/17 05:03:02;;;;;;;7.38;3.90;;;;;;;2.87;38.32;101661.50;4950221;28;97090;-72
2021/03/17 05:05:31;;;;;;;4.03;3.75;;;;;;;2.85;38.51;101661.41;5001291;27;97595;-72
2021/03/17 05:07:59;;;;;;;4.55;4.25;;;;;;;2.90;38.38;101666.94;4968434;28;98761;-72
2021/03/17 05:10:47;;;;;;;5.95;4.55;;;;;;;2.85;38.09;101657.84;4999156;28;97876;-73
2021/03/17 05:13:16;;;;;;;4.80;4.40;;;;;;;2.81;38.23;101658.44;4951707;28;96997;-73
2021/03/17 05:15:45;;;;;;;7.30;5.68;;;;;;;2.86;38.13;101672.81;4970189;28;97010;-73
2021/03/17 05:18:15;;;;;;;5.13;4.30;;;;;;;2.92;37.95;101671.50;4969856;28;96766;-73
2021/03/17 05:20:45;;;;;;;5.82;4.15;;;;;;;2.98;38.25;101671.00;4970449;28;96965;-73
2021/03/17 05:23:13;;;;;;;5.78;4.00;;;;;;;3.03;38.00;101675.75;4968782;28;96725;-73
2021/03/17 05:25:40;;;;;;;4.93;4.57;;;;;;;3.06;38.05;101677.66;4978188;28;96850;-72
2021/03/17 05:28:07;;;;;;;5.50;4.10;;;;;;;3.05;37.87;101681.09;4968673;28;97001;-73
2021/03/17 05:30:36;;;;;;;6.60;4.95;;;;;;;3.10;37.90;101670.06;4990484;28;99614;-73
2021/03/17 05:33:06;;;;;;;6.72;4.15;;;;;;;3.14;37.89;101676.44;4986329;28;96819;-73
2021/03/17 05:35:33;;;;;;;39.53;16.63;;;;;;;3.18;38.11;101678.47;4972984;28;97077;-73
2021/03/17 05:38:02;;;;;;;7.95;5.45;;;;;;;3.17;38.13;101679.25;4957066;28;97146;-73
2021/03/17 05:40:29;;;;;;;3.88;3.70;;;;;;;3.20;38.25;101675.09;4964995;28;98452;-72
2021/03/17 05:42:59;;;;;;;4.28;4.00;;;;;;;3.22;37.92;101684.00;4964873;28;97062;-73
2021/03/17 05:45:27;;;;;;;4.88;4.20;;;;;;;3.18;37.88;101683.72;4969672;28;96987;-72
2021/03/17 05:48:07;;;;;;;4.78;3.90;;;;;;;3.22;37.87;101681.38;4969688;28;98723;-72
2021/03/17 05:50:35;;;;;;;5.53;3.90;;;;;;;3.20;38.46;101684.75;4955171;28;97685;-72
2021/03/17 05:53:05;;;;;;;4.57;4.18;;;;;;;3.24;37.80;101689.34;4981705;28;97485;-71
2021/03/17 05:55:32;;;;;;;4.65;4.28;;;;;;;3.21;37.97;101695.34;4965758;28;97557;-73
2021/03/17 05:58:00;;;;;;;4.53;4.20;;;;;;;3.24;38.14;101689.34;4948681;28;97605;-73
2021/03/17 06:00:28;;;;;;;4.82;4.43;;;;;;;3.25;37.92;101693.81;4950520;28;98356;-73
2021/03/17 06:02:55;;;;;;;4.35;4.05;;;;;;;3.33;38.23;101695.22;4968549;28;98690;-73
2021/03/17 06:05:24;;;;;;;6.25;4.32;;;;;;;3.39;37.81;101700.88;4986450;28;96820;-73
2021/03/17 06:07:58;;;;;;;4.45;4.05;;;;;;;3.44;37.53;101693.31;4988026;28;98951;-73
2021/03/17 06:10:27;;;;;;;4.30;3.97;;;;;;;3.41;38.20;101703.59;4965860;28;96800;-73
2021/03/17 06:12:59;;;;;;;4.97;4.25;;;;;;;3.38;37.94;101706.06;5005613;27;96953;-73
2021/03/17 06:15:28;;;;;;;4.47;4.18;;;;;;;3.32;38.08;101703.94;4953433;28;96961;-72
2021/03/17 06:17:58;;;;;;;6.18;3.95;;;;;;;3.32;38.00;101703.94;4973177;28;99791;-73
2021/03/17 06:20:27;;;;;;;4.25;3.88;;;;;;;3.32;38.70;101713.53;5000406;28;96750;-72
2021/03/17 06:22:54;;;;;;;4.35;4.10;;;;;;;3.34;38.19;101710.19;5001296;27;96984;-73
2021/03/17 06:25:21;;;;;;;7.32;4.20;;;;;;;3.30;38.12;101713.44;5006289;28;97341;-72
2021/03/17 06:27:48;;;;;;;4.65;4.30;;;;;;;3.36;38.33;101718.19;4964324;28;97760;-72
2021/03/17 06:30:16;;;;;;;4.95;4.20;;;;;;;3.41;38.02;101716.75;4964469;28;97594;-72
2021/03/17 06:32:43;;;;;;;4.82;4.35;;;;;;;3.41;38.20;101719.38;4969332;28;96989;-73
2021/03/17 06:35:19;;;;;;;5.60;4.30;;;;;;;3.42;38.15;101716.88;5000167;28;97304;-73
2021/03/17 06:37:52;;;;;;;4.72;4.00;;;;;;;3.41;37.88;101720.31;5004717;28;97429;-73
2021/03/17 06:40:27;;;;;;;5.00;4.50;;;;;;;3.36;37.70;101711.22;4967141;28;99768;-73
2021/03/17 06:42:56;;;;;;;7.47;3.95;;;;;;;3.35;37.92;101713.75;4988681;28;96911;-73
2021/03/17 06:45:31;;;;;;;4.55;4.15;;;;;;;3.37;37.97;101709.50;4954644;28;96937;-73
2021/03/17 06:48:17;;;;;;;4.47;4.07;;;;;;;3.35;38.48;101717.28;4972090;28;96896;-73
2021/03/17 06:50:44;;;;;;;4.63;4.10;;;;;;;3.36;38.48;101718.19;4962344;28;96944;-72
2021/03/17 06:53:12;;;;;;;7.07;4.10;;;;;;;3.39;38.30;101721.00;4953012;28;96832;-73
2021/03/17 06:55:39;;;;;;;4.70;4.03;;;;;;;3.39;38.17;101724.56;4969035;28;96809;-73
2021/03/17 06:58:06;;;;;;;4.90;4.50;;;;;;;3.37;38.10;101720.91;4983455;28;96734;-73
2021/03/17 07:00:35;;;;;;;5.22;3.80;;;;;;;3.40;38.16;101723.75;4964033;28;100173;-73
2021/03/17 07:03:05;;;;;;;5.57;4.38;;;;;;;3.42;38.32;101732.66;4985962;28;96896;-73
2021/03/17 07:05:38;;;;;;;6.88;4.35;;;;;;;3.47;38.47;101731.25;4983006;28;96947;-74
2021/03/17 07:08:07;;;;;;;10.32;4.78;;;;;;;3.49;37.98;101734.88;4979699;28;97985;-74
2021/03/17 07:10:57;;;;;;;5.55;4.35;;;;;;;3.54;37.78;101738.72;4980882;28;99041;-73
2021/03/17 07:13:26;;;;;;;6.30;4.50;;;;;;;3.56;37.80;101739.72;4965419;28;97928;-73
2021/03/17 07:15:55;;;;;;;4.50;4.13;;;;;;;3.56;37.60;101734.47;4948142;28;96841;-73
2021/03/17 07:18:25;;;;;;;10.27;4.35;;;;;;;3.46;38.61;101739.03;4965076;28;97278;-72
2021/03/17 07:20:54;;;;;;;5.10;4.57;;;;;;;3.44;37.77;101740.66;4965531;28;97054;-72
2021/03/17 07:23:30;;;;;;;4.85;4.53;;;;;;;3.35;38.17;101742.69;5003663;28;97361;-74
2021/03/17 07:26:06;;;;;;;5.03;4.55;;;;;;;3.35;38.21;101740.94;4953883;28;97322;-72
2021/03/17 07:28:54;;;;;;;7.38;4.70;;;;;;;3.38;39.00;101741.16;4968127;28;97691;-72
2021/03/17 07:31:23;;;;;;;4.95;4.57;;;;;;;3.44;38.32;101740.66;4979926;28;97335;-73
2021/03/17 07:33:51;;;;;;;4.40;4.10;;;;;;;3.36;38.81;101742.78;4996411;28;98105;-74
2021/03/17 07:36:35;;;;;;;6.65;4.50;;;;;;;3.40;38.43;101736.00;4966475;28;97098;-74
2021/03/17 07:39:06;;;;;;;5.75;4.35;;;;;;;3.40;38.02;101738.63;4961197;28;98597;-74
2021/03/17 07:41:34;;;;;;;10.43;7.10;;;;;;;3.43;37.95;101744.06;4965011;28;99401;-74
2021/03/17 07:44:05;;;;;;;4.93;4.72;;;;;;;3.39;38.87;101742.97;4967756;28;96819;-72
2021/03/17 07:46:32;;;;;;;4.43;4.22;;;;;;;3.40;38.36;101746.53;4989004;28;96938;-72
2021/03/17 07:49:10;;;;;;;4.90;4.28;;;;;;;3.36;38.36;101749.75;4967381;28;97715;-72
2021/03/17 07:51:42;;;;;;;5.07;4.30;;;;;;;3.41;38.78;101750.97;5003402;28;99083;-72
2021/03/17 07:54:09;;;;;;;4.50;4.07;;;;;;;3.46;38.79;101755.72;5005514;27;96964;-72
2021/03/17 07:56:38;;;;;;;5.35;4.85;;;;;;;3.51;38.44;101754.31;4985968;28;97213;-72
2021/03/17 07:59:06;;;;;;;4.85;4.47;;;;;;;3.50;38.35;101755.09;4946217;28;98601;-74
2021/03/17 08:01:33;;;;;;;5.05;4.57;;;;;;;3.54;38.84;101753.59;4991202;28;98088;-74
2021/03/17 08:04:01;;;;;;;4.40;4.00;;;;;;;3.49;38.40;101752.38;4949318;28;97886;-72
2021/03/17 08:06:29;;;;;;;4.55;4.15;;;;;;;3.42;38.89;101769.50;4971791;28;96728;-72
2021/03/17 08:08:58;;;;;;;4.35;3.95;;;;;;;3.41;38.14;101759.78;4987307;28;98155;-74
2021/03/17 08:11:27;;;;;;;4.75;4.40;;;;;;;3.44;38.75;101762.59;4970277;28;98484;-73
2021/03/17 08:13:56;;;;;;;8.55;4.57;;;;;;;3.44;38.72;101762.59;5004028;27;96920;-73
2021/03/17 08:16:26;;;;;;;4.47;4.07;;;;;;;3.48;38.67;101761.97;4952071;28;96954;-73
2021/03/17 08:18:54;;;;;;;4.45;4.10;;;;;;;3.47;38.52;101772.41;4969677;28;99272;-74
2021/03/17 08:21:51;;;;;;;5.15;4.20;;;;;;;3.46;38.54;101765.34;4969875;28;98857;-73
2021/03/17 08:24:48;;;;;;;4.07;3.67;;;;;;;3.33;39.31;101773.25;5001783;28;97114;-75
2021/03/17 08:27:25;;;;;;;6.63;4.53;;;;;;;3.30;39.65;101773.03;4934623;28;96783;-73
2021/03/17 08:30:08;;;;;;;9.70;4.32;;;;;;;3.23;39.86;101774.34;4965345;28;98575;-75
2021/03/17 08:32:55;;;;;;;4.60;4.38;;;;;;;3.31;38.97;101770.53;4975496;28;97320;-74
2021/03/17 08:35:22;;;;;;;4.57;4.07;;;;;;;3.37;38.79;101763.00;4998196;27;96954;-73
2021/03/17 08:37:52;;;;;;;4.88;4.53;;;;;;;3.37;38.79;101757.75;4975828;28;96953;-73
2021/03/17 08:40:44;;;;;;;4.95;4.50;;;;;;;3.49;38.42;101760.28;5005492;28;97716;-73
2021/03/17 08:43:40;;;;;;;4.10;3.80;;;;;;;3.58;38.46;101763.50;5007068;28;97022;-75
2021/03/17 08:46:09;;;;;;;8.93;4.20;;;;;;;3.65;38.39;101764.03;4973985;28;97367;-73
2021/03/17 08:48:59;;;;;;;5.97;4.20;;;;;;;3.66;38.82;101763.22;5005733;28;96649;-74
2021/03/17 08:52:04;;;;;;;5.18;4.55;;;;;;;3.65;38.19;101769.31;5006918;28;99064;-73
2021/03/17 08:55:14;;;;;;;8.48;4.15;;;;;;;3.70;38.27;101766.94;4957896;28;97901;-73
2021/03/17 08:58:03;;;;;;;5.13;4.05;;;;;;;3.72;38.26;101755.72;4957399;28;97185;-73
2021/03/17 09:01:03;;;;;;;4.55;4.15;;;;;;;3.73;38.54;101765.41;4956518;28;97497;-74
2021/03/17 09:03:48;;;;;;;6.47;4.45;;;;;;;3.75;38.72;101769.06;4899183;28;97117;-75
2021/03/17 09:06:18;;;;;;;4.80;4.28;;;;;;;3.79;37.97;101768.44;4879071;28;99662;-73
2021/03/17 09:09:03;;;;;;;10.05;4.60;;;;;;;3.71;38.41;101774.97;4948147;28;97509;-75
2021/03/17 09:11:55;;;;;;;4.57;4.03;;;;;;;3.78;38.92;101781.53;5002865;27;96933;-74
2021/03/17 09:14:25;;;;;;;6.82;3.95;;;;;;;3.81;38.52;101777.34;5004858;28;98450;-74
2021/03/17 09:17:26;;;;;;;4.68;4.28;;;;;;;3.80;38.86;101786.09;4972495;28;98490;-73
2021/03/17 09:20:09;;;;;;;5.20;4.25;;;;;;;3.88;38.03;101781.28;4877496;28;97018;-75
2021/03/17 09:22:45;;;;;;;4.90;3.80;;;;;;;3.98;38.23;101782.00;4962833;28;96880;-73
2021/03/17 09:25:14;;;;;;;8.95;4.30;;;;;;;3.97;38.35;101784.53;4990634;28;98912;-75
2021/03/17 09:27:45;;;;;;;5.00;4.22;;;;;;;4.02;37.89;101796.25;4971561;28;96769;-75
2021/03/17 09:30:15;;;;;;;6.68;4.18;;;;;;;4.06;38.46;101801.78;5005913;27;97140;-73
2021/03/17 09:32:42;;;;;;;6.18;3.83;;;;;;;4.12;38.05;101791.66;4973179;28;96823;-73
2021/03/17 09:35:12;;;;;;;5.65;4.32;;;;;;;4.18;37.74;101792.06;5005202;27;98541;-74
2021/03/17 09:37:39;;;;;;;8.95;4.35;;;;;;;4.24;37.86;101783.63;4971729;28;98685;-74
2021/03/17 09:40:07;;;;;;;6.93;3.63;;;;;;;4.31;37.96;101782.28;4970170;28;97121;-73
2021/03/17 09:42:36;;;;;;;4.60;4.20;;;;;;;4.33;38.00;101778.00;4969497;28;96903;-75
2021/03/17 09:45:05;;;;;;;3.95;3.78;;;;;;;4.32;37.77;101792.00;4985317;28;96837;-74
2021/03/17 09:47:32;;;;;;;6.25;4.30;;;;;;;4.33;37.94;101785.91;4971256;28;98651;-74
2021/03/17 09:50:00;;;;;;;5.15;4.20;;;;;;;4.37;37.68;101788.81;4973950;28;97414;-73
2021/03/17 09:52:29;;;;;;;6.57;4.55;;;;;;;4.42;37.60;101786.47;4969019;28;96889;-73
2021/03/17 09:54:56;;;;;;;4.90;3.63;;;;;;;4.53;37.82;101785.41;4970990;28;99094;-73
2021/03/17 09:57:28;;;;;;;4.90;4.20;;;;;;;4.60;37.62;101785.88;4986570;28;97611;-73
2021/03/17 10:00:02;;;;;;;4.07;3.70;;;;;;;4.73;37.42;101784.91;5003729;28;96953;-74
2021/03/17 10:02:53;;;;;;;6.80;3.55;;;;;;;4.83;37.31;101792.53;5001721;27;97090;-74
2021/03/17 10:05:20;;;;;;;5.13;4.78;;;;;;;4.91;37.20;101789.56;5001128;28;100474;-73
2021/03/17 10:07:49;;;;;;;4.68;4.28;;;;;;;4.99;37.33;101787.38;4951278;28;98749;-74
2021/03/17 10:10:18;;;;;;;3.70;3.45;;;;;;;4.96;37.18;101790.72;4981566;28;96987;-74
2021/03/17 10:12:45;;;;;;;4.40;4.00;;;;;;;4.99;37.32;101787.38;4972124;28;96815;-74
2021/03/17 10:15:13;;;;;;;4.63;4.22;;;;;;;5.00;37.31;101794.47;4957419;28;96811;-76
2021/03/17 10:17:41;;;;;;;5.90;4.03;;;;;;;5.16;37.08;101799.84;4971620;28;96843;-74
2021/03/17 10:20:11;;;;;;;4.65;4.25;;;;;;;5.13;37.10;101797.97;4970567;28;96936;-73
2021/03/17 10:22:38;;;;;;;7.15;3.50;;;;;;;5.09;37.11;101789.75;4990712;28;98091;-74
2021/03/17 10:25:09;;;;;;;4.35;4.05;;;;;;;5.11;37.20;101796.03;4985726;28;97319;-75
2021/03/17 10:27:38;;;;;;;5.50;4.90;;;;;;;5.17;37.17;101797.28;4971342;28;96840;-74
2021/03/17 10:30:08;;;;;;;6.25;3.95;;;;;;;5.25;36.86;101800.41;4984959;28;98130;-74
2021/03/17 10:32:36;;;;;;;4.18;3.78;;;;;;;5.33;37.06;101799.13;4971740;28;97408;-76
2021/03/17 10:35:09;;;;;;;6.50;4.00;;;;;;;5.38;36.83;101802.94;5001810;28;97085;-74
2021/03/17 10:37:36;;;;;;;6.13;3.78;;;;;;;5.39;36.71;101791.56;4971031;28;99497;-73
2021/03/17 10:40:11;;;;;;;4.25;3.42;;;;;;;5.48;36.61;101796.47;4968569;28;96866;-73
2021/03/17 10:42:46;;;;;;;4.30;3.88;;;;;;;5.55;36.32;101798.63;4995692;28;97291;-74
2021/03/17 10:45:15;;;;;;;4.72;4.25;;;;;;;5.57;36.36;101799.63;4970835;28;100052;-75
2021/03/17 10:47:43;;;;;;;6.95;3.80;;;;;;;5.59;36.43;101792.72;4993722;28;99697;-74
2021/03/17 10:50:14;;;;;;;7.38;3.78;;;;;;;5.66;36.25;101798.44;4952550;28;97358;-74
2021/03/17 10:52:43;;;;;;;5.28;3.53;;;;;;;5.75;36.30;101804.22;4967826;28;96837;-75
2021/03/17 10:55:17;;;;;;;4.43;3.65;;;;;;;5.75;36.11;101793.66;4985692;28;98143;-74
2021/03/17 10:57:45;;;;;;;4.70;3.85;;;;;;;5.77;36.21;101799.94;4970417;28;97156;-74
2021/03/17 11:00:20;;;;;;;4.72;3.53;;;;;;;5.75;34.98;101801.59;4969930;28;97385;-75
2021/03/17 11:02:47;;;;;;;3.67;3.40;;;;;;;5.70;35.93;101800.44;4972499;28;97040;-73
2021/03/17 11:05:17;;;;;;;3.25;3.05;;;;;;;5.66;36.13;101795.78;4967713;28;100175;-74
2021/03/17 11:07:52;;;;;;;3.63;3.33;;;;;;;5.70;35.76;101804.78;4987184;28;97568;-73
2021/03/17 11:10:32;;;;;;;4.40;4.10;;;;;;;5.72;35.59;101805.78;4954623;28;96939;-75
2021/03/17 11:13:00;;;;;;;5.60;3.65;;;;;;;5.79;36.06;101800.94;4970756;28;97540;-73
2021/03/17 11:15:29;;;;;;;7.18;3.70;;;;;;;5.83;35.87;101797.63;4956683;28;99547;-74
2021/03/17 11:17:56;;;;;;;8.18;3.63;;;;;;;5.91;35.75;101800.72;4973659;28;96890;-74
2021/03/17 11:20:25;;;;;;;6.90;3.30;;;;;;;5.96;35.90;101800.13;4975080;28;97074;-73
2021/03/17 11:22:53;;;;;;;4.63;3.60;;;;;;;5.92;35.70;101795.50;4974820;28;96773;-74
2021/03/17 11:25:23;;;;;;;3.75;3.10;;;;;;;6.00;35.68;101798.56;4969932;28;100134;-73
2021/03/17 11:27:52;;;;;;;5.47;3.50;;;;;;;6.08;35.76;101800.84;4971224;28;99771;-75
2021/03/17 11:30:20;;;;;;;4.80;3.60;;;;;;;6.09;35.37;101800.00;4959986;28;97388;-73
2021/03/17 11:32:47;;;;;;;7.00;3.38;;;;;;;6.07;35.23;101788.44;4973590;28;97431;-73
2021/03/17 11:35:14;;;;;;;7.35;3.50;;;;;;;6.16;35.33;101795.94;4956937;28;97392;-73
2021/03/17 11:37:41;;;;;;;8.93;4.70;;;;;;;6.25;35.05;101804.38;4992108;28;98037;-73
2021/03/17 11:40:09;;;;;;;3.65;3.33;;;;;;;6.32;35.15;101798.66;4969352;28;96823;-74
2021/03/17 11:42:36;;;;;;;3.92;3.55;;;;;;;6.43;35.23;101805.44;4975390;28;97126;-73
2021/03/17 11:45:15;;;;;;;3.95;3.40;;;;;;;6.41;35.01;101798.25;4973484;28;97508;-74
2021/03/17 11:47:42;;;;;;;4.20;3.05;;;;;;;6.50;34.99;101797.00;4974013;28;98109;-73
2021/03/17 11:50:10;;;;;;;4.13;3.72;;;;;;;6.51;35.17;101795.25;4971119;28;96799;-75
2021/03/17 11:52:49;;;;;;;5.45;3.60;;;;;;;6.53;34.73;101801.53;4972524;28;97019;-73
2021/03/17 11:55:18;;;;;;;4.18;3.28;;;;;;;6.60;34.68;101794.00;4970906;28;98962;-73
2021/03/17 11:57:46;;;;;;;4.05;3.72;;;;;;;6.70;34.86;101795.41;5001388;28;97391;-73